sensor_id;sensor_type;location;lat;lon;timestamp;pressure;altitude;pressure_sealevel;temperature;humidity
22755;BME280;11544;42.020;23.094;2023-09-30T00:00:10;97542.06;;;17.27;75.28
22755;BME280;11544;42.020;23.094;2023-09-30T00:02:38;97539.69;;;17.06;75.67
22755;BME280;11544;42.020;23.094;2023-09-30T00:05:04;97536.47;;;17.31;73.14
22755;BME280;11544;42.020;23.094;2023-09-30T00:07:31;97535.50;;;17.34;73.52
22755;BME280;11544;42.020;23.094;2023-09-30T00:09:58;97529.84;;;16.94;74.51
22755;BME280;11544;42.020;23.094;2023-09-30T00:12:25;97536.81;;;16.95;74.52
22755;BME280;11544;42.020;23.094;2023-09-30T00:14:53;97537.97;;;17.21;75.34
22755;BME280;11544;42.020;23.094;2023-09-30T00:17:20;97533.03;;;16.67;76.24
22755;BME280;11544;42.020;23.094;2023-09-30T00:19:46;97535.31;;;16.73;75.91
22755;BME280;11544;42.020;23.094;2023-09-30T00:22:13;97534.75;;;16.68;77.60
22755;BME280;11544;42.020;23.094;2023-09-30T00:24:40;97539.59;;;16.27;78.09
22755;BME280;11544;42.020;23.094;2023-09-30T00:27:06;97527.97;;;16.96;77.11
22755;BME280;11544;42.020;23.094;2023-09-30T00:29:33;97531.81;;;16.25;77.69
22755;BME280;11544;42.020;23.094;2023-09-30T00:32:00;97530.63;;;16.63;78.05
22755;BME280;11544;42.020;23.094;2023-09-30T00:34:26;97527.00;;;16.49;77.69
22755;BME280;11544;42.020;23.094;2023-09-30T00:36:53;97526.53;;;16.90;76.13
22755;BME280;11544;42.020;23.094;2023-09-30T00:39:20;97521.75;;;16.81;76.06
22755;BME280;11544;42.020;23.094;2023-09-30T00:41:47;97519.31;;;16.94;75.43
22755;BME280;11544;42.020;23.094;2023-09-30T00:44:14;97521.41;;;16.71;76.81
22755;BME280;11544;42.020;23.094;2023-09-30T00:46:41;97529.19;;;16.41;79.06
22755;BME280;11544;42.020;23.094;2023-09-30T00:49:09;97530.03;;;16.58;79.11
22755;BME280;11544;42.020;23.094;2023-09-30T00:51:36;97528.28;;;16.74;79.06
22755;BME280;11544;42.020;23.094;2023-09-30T00:54:04;97531.53;;;15.97;79.75
22755;BME280;11544;42.020;23.094;2023-09-30T00:56:32;97526.16;;;16.49;79.14
22755;BME280;11544;42.020;23.094;2023-09-30T00:58:59;97520.56;;;17.03;77.72
22755;BME280;11544;42.020;23.094;2023-09-30T01:01:26;97519.91;;;16.34;77.43
22755;BME280;11544;42.020;23.094;2023-09-30T01:03:52;97519.06;;;16.34;79.54
22755;BME280;11544;42.020;23.094;2023-09-30T01:06:19;97518.50;;;16.60;77.61
22755;BME280;11544;42.020;23.094;2023-09-30T01:08:46;97522.97;;;16.26;80.53
22755;BME280;11544;42.020;23.094;2023-09-30T01:11:13;97520.53;;;16.55;79.78
22755;BME280;11544;42.020;23.094;2023-09-30T01:13:40;97516.09;;;16.24;79.17
22755;BME280;11544;42.020;23.094;2023-09-30T01:16:08;97520.75;;;16.19;79.69
22755;BME280;11544;42.020;23.094;2023-09-30T01:18:38;97521.22;;;15.76;80.98
22755;BME280;11544;42.020;23.094;2023-09-30T01:21:05;97522.16;;;16.08;81.89
22755;BME280;11544;42.020;23.094;2023-09-30T01:23:33;97521.19;;;16.27;81.42
22755;BME280;11544;42.020;23.094;2023-09-30T01:26:03;97515.69;;;16.47;79.91
22755;BME280;11544;42.020;23.094;2023-09-30T01:28:30;97523.25;;;16.04;82.26
22755;BME280;11544;42.020;23.094;2023-09-30T01:30:58;97519.69;;;16.05;81.34
22755;BME280;11544;42.020;23.094;2023-09-30T01:33:24;97526.59;;;15.91;82.07
22755;BME280;11544;42.020;23.094;2023-09-30T01:35:51;97522.25;;;16.07;83.30
22755;BME280;11544;42.020;23.094;2023-09-30T01:38:18;97523.56;;;16.32;81.59
22755;BME280;11544;42.020;23.094;2023-09-30T01:40:45;97524.78;;;16.08;82.03
22755;BME280;11544;42.020;23.094;2023-09-30T01:43:11;97522.22;;;16.40;80.33
22755;BME280;11544;42.020;23.094;2023-09-30T01:45:40;97529.25;;;16.24;83.75
22755;BME280;11544;42.020;23.094;2023-09-30T01:48:07;97524.78;;;16.58;81.33
22755;BME280;11544;42.020;23.094;2023-09-30T01:50:38;97533.13;;;15.83;83.01
22755;BME280;11544;42.020;23.094;2023-09-30T01:53:07;97531.09;;;16.22;83.80
22755;BME280;11544;42.020;23.094;2023-09-30T01:55:43;97526.75;;;16.54;78.93
22755;BME280;11544;42.020;23.094;2023-09-30T01:58:44;97531.97;;;16.38;80.69
22755;BME280;11544;42.020;23.094;2023-09-30T02:01:12;97539.09;;;16.03;82.28
22755;BME280;11544;42.020;23.094;2023-09-30T02:03:40;97530.09;;;15.91;82.35
22755;BME280;11544;42.020;23.094;2023-09-30T02:06:08;97526.91;;;15.84;82.76
22755;BME280;11544;42.020;23.094;2023-09-30T02:08:34;97526.97;;;16.34;80.17
22755;BME280;11544;42.020;23.094;2023-09-30T02:11:02;97531.81;;;16.25;81.25
22755;BME280;11544;42.020;23.094;2023-09-30T02:13:32;97532.50;;;15.78;81.71
22755;BME280;11544;42.020;23.094;2023-09-30T02:15:59;97538.75;;;16.26;84.38
22755;BME280;11544;42.020;23.094;2023-09-30T02:18:26;97534.53;;;15.73;83.53
22755;BME280;11544;42.020;23.094;2023-09-30T02:20:52;97534.78;;;15.67;84.07
22755;BME280;11544;42.020;23.094;2023-09-30T02:23:19;97540.97;;;15.66;86.17
22755;BME280;11544;42.020;23.094;2023-09-30T02:25:47;97535.94;;;15.44;87.20
22755;BME280;11544;42.020;23.094;2023-09-30T02:28:14;97535.47;;;15.53;89.09
22755;BME280;11544;42.020;23.094;2023-09-30T02:30:41;97537.84;;;15.23;87.97
22755;BME280;11544;42.020;23.094;2023-09-30T02:33:07;97536.88;;;15.60;88.91
22755;BME280;11544;42.020;23.094;2023-09-30T02:35:34;97539.34;;;15.63;85.79
22755;BME280;11544;42.020;23.094;2023-09-30T02:38:01;97538.06;;;15.72;86.18
22755;BME280;11544;42.020;23.094;2023-09-30T02:40:28;97535.97;;;15.61;85.89
22755;BME280;11544;42.020;23.094;2023-09-30T02:42:54;97540.19;;;15.46;87.18
22755;BME280;11544;42.020;23.094;2023-09-30T02:45:21;97544.06;;;15.03;88.02
22755;BME280;11544;42.020;23.094;2023-09-30T02:47:48;97541.72;;;15.68;89.16
22755;BME280;11544;42.020;23.094;2023-09-30T02:50:14;97544.72;;;16.46;88.59
22755;BME280;11544;42.020;23.094;2023-09-30T02:52:41;97541.81;;;16.01;86.91
22755;BME280;11544;42.020;23.094;2023-09-30T02:55:11;97540.03;;;15.67;89.40
22755;BME280;11544;42.020;23.094;2023-09-30T02:57:38;97541.47;;;15.20;86.96
22755;BME280;11544;42.020;23.094;2023-09-30T03:00:05;97545.28;;;15.32;88.19
22755;BME280;11544;42.020;23.094;2023-09-30T03:02:51;97542.13;;;15.43;87.62
22755;BME280;11544;42.020;23.094;2023-09-30T03:05:18;97539.72;;;15.38;86.43
22755;BME280;11544;42.020;23.094;2023-09-30T03:07:46;97546.00;;;14.61;90.94
22755;BME280;11544;42.020;23.094;2023-09-30T03:10:13;97554.25;;;14.54;93.31
22755;BME280;11544;42.020;23.094;2023-09-30T03:12:47;97549.94;;;14.72;93.73
22755;BME280;11544;42.020;23.094;2023-09-30T03:15:14;97553.75;;;14.84;94.05
22755;BME280;11544;42.020;23.094;2023-09-30T03:17:41;97544.22;;;14.62;94.84
22755;BME280;11544;42.020;23.094;2023-09-30T03:20:08;97547.72;;;15.72;92.99
22755;BME280;11544;42.020;23.094;2023-09-30T03:22:41;97545.44;;;15.46;90.99
22755;BME280;11544;42.020;23.094;2023-09-30T03:25:14;97549.22;;;15.41;91.04
22755;BME280;11544;42.020;23.094;2023-09-30T03:27:42;97550.16;;;15.57;89.16
22755;BME280;11544;42.020;23.094;2023-09-30T03:30:09;97548.75;;;15.33;90.61
22755;BME280;11544;42.020;23.094;2023-09-30T03:32:38;97551.03;;;15.40;93.25
22755;BME280;11544;42.020;23.094;2023-09-30T03:35:05;97545.00;;;15.91;93.57
22755;BME280;11544;42.020;23.094;2023-09-30T03:37:32;97555.38;;;15.76;96.93
22755;BME280;11544;42.020;23.094;2023-09-30T03:39:59;97545.38;;;16.00;87.29
22755;BME280;11544;42.020;23.094;2023-09-30T03:42:27;97553.66;;;15.40;88.82
22755;BME280;11544;42.020;23.094;2023-09-30T03:44:56;97550.88;;;15.07;91.34
22755;BME280;11544;42.020;23.094;2023-09-30T03:47:22;97540.88;;;15.33;91.85
22755;BME280;11544;42.020;23.094;2023-09-30T03:49:49;97544.88;;;15.22;89.53
22755;BME280;11544;42.020;23.094;2023-09-30T03:52:16;97547.34;;;14.89;92.80
22755;BME280;11544;42.020;23.094;2023-09-30T03:54:44;97546.41;;;14.90;92.67
22755;BME280;11544;42.020;23.094;2023-09-30T03:57:10;97543.38;;;15.36;93.78
22755;BME280;11544;42.020;23.094;2023-09-30T03:59:39;97544.38;;;14.78;95.52
22755;BME280;11544;42.020;23.094;2023-09-30T04:02:06;97544.94;;;14.85;94.20
22755;BME280;11544;42.020;23.094;2023-09-30T04:04:32;97549.22;;;14.68;96.67
22755;BME280;11544;42.020;23.094;2023-09-30T04:07:00;97545.88;;;15.20;92.73
22755;BME280;11544;42.020;23.094;2023-09-30T04:09:28;97551.41;;;14.77;95.09
22755;BME280;11544;42.020;23.094;2023-09-30T04:11:55;97542.59;;;15.34;92.27
22755;BME280;11544;42.020;23.094;2023-09-30T04:14:22;97542.66;;;14.96;91.84
22755;BME280;11544;42.020;23.094;2023-09-30T04:16:49;97536.31;;;15.19;92.40
22755;BME280;11544;42.020;23.094;2023-09-30T04:19:15;97540.69;;;14.44;94.54
22755;BME280;11544;42.020;23.094;2023-09-30T04:21:42;97552.00;;;14.26;98.34
22755;BME280;11544;42.020;23.094;2023-09-30T04:24:09;97540.44;;;15.06;93.76
22755;BME280;11544;42.020;23.094;2023-09-30T04:26:36;97546.94;;;14.79;97.56
22755;BME280;11544;42.020;23.094;2023-09-30T04:29:03;97554.41;;;14.70;96.84
22755;BME280;11544;42.020;23.094;2023-09-30T04:31:31;97553.97;;;15.15;98.69
22755;BME280;11544;42.020;23.094;2023-09-30T04:33:58;97559.44;;;15.11;95.76
22755;BME280;11544;42.020;23.094;2023-09-30T04:36:25;97565.19;;;15.00;95.90
22755;BME280;11544;42.020;23.094;2023-09-30T04:38:51;97552.91;;;15.19;93.20
22755;BME280;11544;42.020;23.094;2023-09-30T04:41:19;97558.22;;;14.81;91.93
22755;BME280;11544;42.020;23.094;2023-09-30T04:43:45;97566.59;;;14.50;98.58
22755;BME280;11544;42.020;23.094;2023-09-30T04:46:12;97566.44;;;14.74;96.98
22755;BME280;11544;42.020;23.094;2023-09-30T04:48:40;97563.22;;;15.41;97.57
22755;BME280;11544;42.020;23.094;2023-09-30T04:51:07;97572.44;;;15.14;94.47
22755;BME280;11544;42.020;23.094;2023-09-30T04:53:35;97571.91;;;14.88;94.19
22755;BME280;11544;42.020;23.094;2023-09-30T04:56:02;97580.28;;;14.77;95.15
22755;BME280;11544;42.020;23.094;2023-09-30T04:58:29;97582.72;;;14.99;95.05
22755;BME280;11544;42.020;23.094;2023-09-30T05:00:56;97585.91;;;14.49;99.67
22755;BME280;11544;42.020;23.094;2023-09-30T05:03:23;97585.25;;;15.02;96.78
22755;BME280;11544;42.020;23.094;2023-09-30T05:05:54;97570.75;;;15.30;99.01
22755;BME280;11544;42.020;23.094;2023-09-30T05:08:24;97588.09;;;14.60;100.00
22755;BME280;11544;42.020;23.094;2023-09-30T05:10:51;97572.72;;;15.80;95.51
22755;BME280;11544;42.020;23.094;2023-09-30T05:13:22;97584.09;;;16.14;99.00
22755;BME280;11544;42.020;23.094;2023-09-30T05:15:50;97579.63;;;15.99;93.76
22755;BME280;11544;42.020;23.094;2023-09-30T05:18:18;97582.22;;;15.29;91.60
22755;BME280;11544;42.020;23.094;2023-09-30T05:20:45;97584.25;;;15.05;92.52
22755;BME280;11544;42.020;23.094;2023-09-30T05:23:11;97589.56;;;14.66;94.65
22755;BME280;11544;42.020;23.094;2023-09-30T05:25:41;97583.31;;;15.60;93.97
22755;BME280;11544;42.020;23.094;2023-09-30T05:28:09;97586.78;;;15.43;93.20
22755;BME280;11544;42.020;23.094;2023-09-30T05:30:38;97588.78;;;16.25;89.04
22755;BME280;11544;42.020;23.094;2023-09-30T05:33:05;97587.50;;;16.16;91.28
22755;BME280;11544;42.020;23.094;2023-09-30T05:35:32;97590.94;;;15.47;88.76
22755;BME280;11544;42.020;23.094;2023-09-30T05:38:00;97594.53;;;15.63;89.95
22755;BME280;11544;42.020;23.094;2023-09-30T05:40:26;97593.16;;;16.75;86.85
22755;BME280;11544;42.020;23.094;2023-09-30T05:42:56;97595.88;;;16.07;89.84
22755;BME280;11544;42.020;23.094;2023-09-30T05:45:27;97598.56;;;16.72;83.93
22755;BME280;11544;42.020;23.094;2023-09-30T05:47:54;97596.78;;;16.57;84.72
22755;BME280;11544;42.020;23.094;2023-09-30T05:50:23;97592.28;;;17.08;83.97
22755;BME280;11544;42.020;23.094;2023-09-30T05:52:53;97594.16;;;16.57;84.00
22755;BME280;11544;42.020;23.094;2023-09-30T05:55:22;97592.84;;;17.29;82.29
22755;BME280;11544;42.020;23.094;2023-09-30T05:57:49;97587.22;;;18.11;75.81
22755;BME280;11544;42.020;23.094;2023-09-30T06:00:16;97594.81;;;17.41;79.12
22755;BME280;11544;42.020;23.094;2023-09-30T06:02:50;97591.94;;;17.14;80.77
22755;BME280;11544;42.020;23.094;2023-09-30T06:05:18;97593.22;;;17.23;80.36
22755;BME280;11544;42.020;23.094;2023-09-30T06:07:46;97601.94;;;18.15;74.83
22755;BME280;11544;42.020;23.094;2023-09-30T06:10:15;97594.63;;;17.12;79.88
22755;BME280;11544;42.020;23.094;2023-09-30T06:12:48;97607.16;;;17.71;80.03
22755;BME280;11544;42.020;23.094;2023-09-30T06:15:15;97601.09;;;17.23;78.82
22755;BME280;11544;42.020;23.094;2023-09-30T06:17:42;97598.47;;;18.58;73.51
22755;BME280;11544;42.020;23.094;2023-09-30T06:20:09;97606.09;;;18.19;73.49
22755;BME280;11544;42.020;23.094;2023-09-30T06:22:44;97604.00;;;17.64;78.07
22755;BME280;11544;42.020;23.094;2023-09-30T06:25:16;97597.34;;;19.59;67.65
22755;BME280;11544;42.020;23.094;2023-09-30T06:27:43;97607.06;;;18.76;67.94
22755;BME280;11544;42.020;23.094;2023-09-30T06:30:10;97601.91;;;19.84;63.23
22755;BME280;11544;42.020;23.094;2023-09-30T06:32:37;97613.44;;;18.29;70.85
22755;BME280;11544;42.020;23.094;2023-09-30T06:35:04;97613.50;;;18.13;72.87
22755;BME280;11544;42.020;23.094;2023-09-30T06:37:32;97613.59;;;19.26;70.09
22755;BME280;11544;42.020;23.094;2023-09-30T06:39:59;97611.13;;;20.94;61.33
22755;BME280;11544;42.020;23.094;2023-09-30T06:42:29;97612.09;;;20.03;63.46
22755;BME280;11544;42.020;23.094;2023-09-30T06:44:56;97607.03;;;20.77;60.79
22755;BME280;11544;42.020;23.094;2023-09-30T06:47:22;97600.44;;;20.96;58.10
22755;BME280;11544;42.020;23.094;2023-09-30T06:49:50;97599.28;;;20.87;57.49
22755;BME280;11544;42.020;23.094;2023-09-30T06:52:17;97602.03;;;20.47;60.49
22755;BME280;11544;42.020;23.094;2023-09-30T06:54:44;97599.03;;;21.99;56.94
22755;BME280;11544;42.020;23.094;2023-09-30T06:57:10;97595.50;;;20.65;58.65
22755;BME280;11544;42.020;23.094;2023-09-30T06:59:37;97592.25;;;21.84;55.13
22755;BME280;11544;42.020;23.094;2023-09-30T07:02:04;97606.91;;;20.40;59.43
22755;BME280;11544;42.020;23.094;2023-09-30T07:04:31;97593.56;;;20.93;58.25
22755;BME280;11544;42.020;23.094;2023-09-30T07:06:59;97591.38;;;21.48;57.75
22755;BME280;11544;42.020;23.094;2023-09-30T07:09:26;97600.00;;;19.99;61.77
22755;BME280;11544;42.020;23.094;2023-09-30T07:12:02;97593.13;;;21.95;56.19
22755;BME280;11544;42.020;23.094;2023-09-30T07:14:30;97593.03;;;21.97;57.07
22755;BME280;11544;42.020;23.094;2023-09-30T07:16:57;97588.28;;;21.89;53.18
22755;BME280;11544;42.020;23.094;2023-09-30T07:19:24;97584.88;;;21.52;55.25
22755;BME280;11544;42.020;23.094;2023-09-30T07:21:50;97591.81;;;22.01;53.96
22755;BME280;11544;42.020;23.094;2023-09-30T07:24:30;97601.59;;;22.36;54.38
22755;BME280;11544;42.020;23.094;2023-09-30T07:26:56;97601.13;;;22.07;53.80
22755;BME280;11544;42.020;23.094;2023-09-30T07:29:23;97598.72;;;22.73;49.17
22755;BME280;11544;42.020;23.094;2023-09-30T07:31:50;97601.84;;;21.97;52.51
22755;BME280;11544;42.020;23.094;2023-09-30T07:34:19;97603.03;;;22.29;53.48
22755;BME280;11544;42.020;23.094;2023-09-30T07:36:49;97594.69;;;21.63;52.73
22755;BME280;11544;42.020;23.094;2023-09-30T07:39:19;97587.72;;;23.22;52.88
22755;BME280;11544;42.020;23.094;2023-09-30T07:41:46;97595.03;;;23.41;49.58
22755;BME280;11544;42.020;23.094;2023-09-30T07:44:13;97581.91;;;23.17;51.28
22755;BME280;11544;42.020;23.094;2023-09-30T07:46:40;97581.06;;;23.60;50.74
22755;BME280;11544;42.020;23.094;2023-09-30T07:49:08;97587.25;;;23.06;49.82
22755;BME280;11544;42.020;23.094;2023-09-30T07:51:35;97595.34;;;22.71;50.30
22755;BME280;11544;42.020;23.094;2023-09-30T07:54:03;97582.44;;;23.87;49.29
22755;BME280;11544;42.020;23.094;2023-09-30T07:56:49;97575.13;;;23.24;49.37
22755;BME280;11544;42.020;23.094;2023-09-30T07:59:16;97578.09;;;23.86;46.87
22755;BME280;11544;42.020;23.094;2023-09-30T08:01:43;97578.28;;;23.94;47.16
22755;BME280;11544;42.020;23.094;2023-09-30T08:04:09;97576.63;;;23.06;47.31
22755;BME280;11544;42.020;23.094;2023-09-30T08:06:36;97582.63;;;22.97;48.15
22755;BME280;11544;42.020;23.094;2023-09-30T08:09:03;97573.00;;;22.85;47.64
22755;BME280;11544;42.020;23.094;2023-09-30T08:11:30;97572.22;;;23.28;49.41
22755;BME280;11544;42.020;23.094;2023-09-30T08:13:59;97563.59;;;24.00;47.74
22755;BME280;11544;42.020;23.094;2023-09-30T08:16:26;97568.72;;;22.93;47.96
22755;BME280;11544;42.020;23.094;2023-09-30T08:18:53;97566.00;;;24.03;46.29
22755;BME280;11544;42.020;23.094;2023-09-30T08:21:19;97558.81;;;24.15;44.94
22755;BME280;11544;42.020;23.094;2023-09-30T08:23:46;97564.53;;;24.10;45.20
22755;BME280;11544;42.020;23.094;2023-09-30T08:26:13;97557.06;;;23.39;44.98
22755;BME280;11544;42.020;23.094;2023-09-30T08:28:40;97559.84;;;23.81;45.44
22755;BME280;11544;42.020;23.094;2023-09-30T08:31:07;97556.03;;;24.47;45.15
22755;BME280;11544;42.020;23.094;2023-09-30T08:33:35;97553.03;;;24.61;45.44
22755;BME280;11544;42.020;23.094;2023-09-30T08:36:10;97552.75;;;24.13;44.43
22755;BME280;11544;42.020;23.094;2023-09-30T08:38:37;97533.50;;;24.30;43.88
22755;BME280;11544;42.020;23.094;2023-09-30T08:41:04;97527.25;;;24.62;44.22
22755;BME280;11544;42.020;23.094;2023-09-30T08:43:31;97533.97;;;24.14;45.91
22755;BME280;11544;42.020;23.094;2023-09-30T08:46:17;97532.25;;;24.34;45.78
22755;BME280;11544;42.020;23.094;2023-09-30T08:48:46;97533.31;;;25.53;43.75
22755;BME280;11544;42.020;23.094;2023-09-30T08:57:07;97521.94;;;24.71;42.38
22755;BME280;11544;42.020;23.094;2023-09-30T08:59:36;97510.84;;;25.26;42.96
22755;BME280;11544;42.020;23.094;2023-09-30T09:02:09;97514.59;;;25.04;42.48
22755;BME280;11544;42.020;23.094;2023-09-30T09:04:43;97505.59;;;25.15;41.83
22755;BME280;11544;42.020;23.094;2023-09-30T09:07:11;97508.59;;;25.41;39.96
22755;BME280;11544;42.020;23.094;2023-09-30T09:09:37;97505.50;;;25.26;41.86
22755;BME280;11544;42.020;23.094;2023-09-30T09:12:19;97505.09;;;25.60;41.65
22755;BME280;11544;42.020;23.094;2023-09-30T09:14:54;97490.31;;;25.07;43.30
22755;BME280;11544;42.020;23.094;2023-09-30T09:17:40;97491.28;;;25.84;41.99
22755;BME280;11544;42.020;23.094;2023-09-30T09:20:09;97492.59;;;25.41;42.15
22755;BME280;11544;42.020;23.094;2023-09-30T09:22:44;97487.25;;;25.80;40.01
22755;BME280;11544;42.020;23.094;2023-09-30T09:25:24;97472.44;;;26.43;40.16
22755;BME280;11544;42.020;23.094;2023-09-30T09:30:39;97469.56;;;25.30;41.20
22755;BME280;11544;42.020;23.094;2023-09-30T09:33:07;97473.38;;;26.24;38.89
22755;BME280;11544;42.020;23.094;2023-09-30T09:35:34;97470.13;;;25.63;39.33
22755;BME280;11544;42.020;23.094;2023-09-30T09:38:03;97465.38;;;26.14;40.16
22755;BME280;11544;42.020;23.094;2023-09-30T09:40:34;97454.44;;;26.45;39.69
22755;BME280;11544;42.020;23.094;2023-09-30T09:43:02;97457.16;;;26.35;39.54
22755;BME280;11544;42.020;23.094;2023-09-30T09:45:34;97446.25;;;27.01;37.24
22755;BME280;11544;42.020;23.094;2023-09-30T09:48:01;97451.19;;;26.78;38.46
22755;BME280;11544;42.020;23.094;2023-09-30T09:50:31;97440.22;;;27.17;35.58
22755;BME280;11544;42.020;23.094;2023-09-30T09:52:58;97448.41;;;26.05;37.30
22755;BME280;11544;42.020;23.094;2023-09-30T09:55:27;97448.09;;;26.18;37.69
22755;BME280;11544;42.020;23.094;2023-09-30T09:57:54;97435.63;;;27.10;36.53
22755;BME280;11544;42.020;23.094;2023-09-30T10:00:24;97425.59;;;26.94;35.28
22755;BME280;11544;42.020;23.094;2023-09-30T10:02:55;97429.75;;;25.76;37.62
22755;BME280;11544;42.020;23.094;2023-09-30T10:05:21;97415.47;;;27.33;35.26
22755;BME280;11544;42.020;23.094;2023-09-30T10:10:19;97406.09;;;27.55;35.72
22755;BME280;11544;42.020;23.094;2023-09-30T10:12:46;97400.63;;;27.65;35.69
22755;BME280;11544;42.020;23.094;2023-09-30T10:18:21;97390.16;;;27.72;34.26
22755;BME280;11544;42.020;23.094;2023-09-30T10:20:48;97388.66;;;28.03;33.34
22755;BME280;11544;42.020;23.094;2023-09-30T10:23:28;97383.72;;;28.17;33.44
22755;BME280;11544;42.020;23.094;2023-09-30T10:26:16;97380.63;;;28.03;34.98
22755;BME280;11544;42.020;23.094;2023-09-30T10:28:45;97380.88;;;27.66;34.90
22755;BME280;11544;42.020;23.094;2023-09-30T10:37:21;97367.63;;;28.17;33.96
22755;BME280;11544;42.020;23.094;2023-09-30T10:40:04;97363.88;;;28.01;32.67
22755;BME280;11544;42.020;23.094;2023-09-30T10:42:44;97349.13;;;27.97;32.32
22755;BME280;11544;42.020;23.094;2023-09-30T10:50:51;97338.00;;;28.69;32.13
22755;BME280;11544;42.020;23.094;2023-09-30T10:53:18;97339.34;;;28.22;32.21
22755;BME280;11544;42.020;23.094;2023-09-30T10:55:50;97327.94;;;28.12;31.40
22755;BME280;11544;42.020;23.094;2023-09-30T10:58:19;97321.53;;;28.47;31.19
22755;BME280;11544;42.020;23.094;2023-09-30T11:00:52;97318.03;;;28.13;31.94
22755;BME280;11544;42.020;23.094;2023-09-30T11:03:20;97316.63;;;28.43;32.02
22755;BME280;11544;42.020;23.094;2023-09-30T11:05:48;97317.47;;;28.35;30.48
22755;BME280;11544;42.020;23.094;2023-09-30T11:08:35;97311.31;;;28.67;29.91
22755;BME280;11544;42.020;23.094;2023-09-30T11:11:03;97314.31;;;28.48;30.36
22755;BME280;11544;42.020;23.094;2023-09-30T11:13:34;97311.94;;;28.45;29.00
22755;BME280;11544;42.020;23.094;2023-09-30T11:16:05;97305.66;;;28.12;29.96
22755;BME280;11544;42.020;23.094;2023-09-30T11:18:33;97298.75;;;28.52;30.96
22755;BME280;11544;42.020;23.094;2023-09-30T11:21:05;97293.34;;;27.58;29.29
22755;BME280;11544;42.020;23.094;2023-09-30T11:23:33;97289.94;;;28.25;28.60
22755;BME280;11544;42.020;23.094;2023-09-30T11:25:59;97293.44;;;28.84;27.76
22755;BME280;11544;42.020;23.094;2023-09-30T11:28:34;97282.16;;;29.05;28.82
22755;BME280;11544;42.020;23.094;2023-09-30T11:31:02;97283.16;;;28.96;28.91
22755;BME280;11544;42.020;23.094;2023-09-30T11:33:29;97282.09;;;28.32;28.80
22755;BME280;11544;42.020;23.094;2023-09-30T11:36:00;97268.75;;;29.05;27.68
22755;BME280;11544;42.020;23.094;2023-09-30T11:38:28;97262.13;;;29.57;27.58
22755;BME280;11544;42.020;23.094;2023-09-30T11:41:13;97265.44;;;28.87;27.20
22755;BME280;11544;42.020;23.094;2023-09-30T11:43:41;97259.38;;;29.18;27.40
22755;BME280;11544;42.020;23.094;2023-09-30T11:46:24;97253.56;;;29.70;27.39
22755;BME280;11544;42.020;23.094;2023-09-30T11:48:58;97249.28;;;29.28;27.83
22755;BME280;11544;42.020;23.094;2023-09-30T11:51:27;97253.22;;;29.65;26.55
22755;BME280;11544;42.020;23.094;2023-09-30T11:53:53;97237.19;;;29.40;26.81
22755;BME280;11544;42.020;23.094;2023-09-30T11:56:20;97228.88;;;28.78;28.41
22755;BME280;11544;42.020;23.094;2023-09-30T11:58:48;97225.00;;;28.56;27.45
22755;BME280;11544;42.020;23.094;2023-09-30T12:01:16;97221.16;;;28.83;25.82
22755;BME280;11544;42.020;23.094;2023-09-30T12:03:43;97218.78;;;29.21;25.48
22755;BME280;11544;42.020;23.094;2023-09-30T12:06:10;97207.25;;;28.63;26.80
22755;BME280;11544;42.020;23.094;2023-09-30T12:08:40;97208.56;;;28.83;25.17
22755;BME280;11544;42.020;23.094;2023-09-30T12:11:06;97202.34;;;28.99;24.93
22755;BME280;11544;42.020;23.094;2023-09-30T12:13:33;97191.94;;;28.96;24.85
22755;BME280;11544;42.020;23.094;2023-09-30T12:16:00;97196.53;;;28.71;25.66
22755;BME280;11544;42.020;23.094;2023-09-30T12:18:26;97202.16;;;29.01;25.37
22755;BME280;11544;42.020;23.094;2023-09-30T12:20:53;97184.44;;;28.42;26.15
22755;BME280;11544;42.020;23.094;2023-09-30T12:23:20;97190.63;;;28.43;26.29
22755;BME280;11544;42.020;23.094;2023-09-30T12:25:46;97196.50;;;28.63;26.69
22755;BME280;11544;42.020;23.094;2023-09-30T12:28:27;97186.16;;;28.68;25.79
22755;BME280;11544;42.020;23.094;2023-09-30T12:30:59;97190.16;;;28.47;26.28
22755;BME280;11544;42.020;23.094;2023-09-30T12:33:25;97177.50;;;29.05;26.02
22755;BME280;11544;42.020;23.094;2023-09-30T12:35:54;97180.38;;;28.96;26.28
22755;BME280;11544;42.020;23.094;2023-09-30T12:38:21;97168.63;;;29.21;25.88
22755;BME280;11544;42.020;23.094;2023-09-30T12:40:48;97158.31;;;28.53;26.45
22755;BME280;11544;42.020;23.094;2023-09-30T12:43:14;97180.38;;;28.96;25.66
22755;BME280;11544;42.020;23.094;2023-09-30T12:45:41;97169.56;;;28.73;25.32
22755;BME280;11544;42.020;23.094;2023-09-30T12:48:08;97166.97;;;29.04;25.07
22755;BME280;11544;42.020;23.094;2023-09-30T12:50:35;97164.84;;;29.39;25.10
22755;BME280;11544;42.020;23.094;2023-09-30T12:53:01;97159.22;;;29.25;25.12
22755;BME280;11544;42.020;23.094;2023-09-30T12:55:28;97157.22;;;29.03;25.66
22755;BME280;11544;42.020;23.094;2023-09-30T12:57:55;97157.06;;;29.04;25.64
22755;BME280;11544;42.020;23.094;2023-09-30T13:00:21;97162.66;;;28.54;25.99
22755;BME280;11544;42.020;23.094;2023-09-30T13:02:48;97159.47;;;28.09;26.87
22755;BME280;11544;42.020;23.094;2023-09-30T13:05:15;97161.97;;;28.43;26.81
22755;BME280;11544;42.020;23.094;2023-09-30T13:07:43;97137.34;;;28.81;26.16
22755;BME280;11544;42.020;23.094;2023-09-30T13:10:10;97123.72;;;28.99;26.04
22755;BME280;11544;42.020;23.094;2023-09-30T13:12:36;97133.94;;;29.03;25.89
22755;BME280;11544;42.020;23.094;2023-09-30T13:15:03;97129.50;;;29.27;25.63
22755;BME280;11544;42.020;23.094;2023-09-30T13:17:31;97132.25;;;29.02;25.78
22755;BME280;11544;42.020;23.094;2023-09-30T13:19:58;97124.09;;;28.79;26.41
22755;BME280;11544;42.020;23.094;2023-09-30T13:22:24;97138.69;;;28.77;26.22